createdAt,value
2022-12-11T00:01:16.145Z,-3.20
2022-12-11T00:03:47.374Z,-3.20
2022-12-11T00:06:20.547Z,-3.70
2022-12-11T00:08:50.922Z,-3.90
2022-12-11T00:11:18.538Z,-1.40
2022-12-11T00:13:46.125Z,-3.30
2022-12-11T00:16:13.817Z,-3.40
2022-12-11T00:18:41.485Z,-3.40
2022-12-11T00:21:14.328Z,-3.30
2022-12-11T00:23:42.272Z,-3.40
2022-12-11T00:26:15.468Z,-3.40
2022-12-11T00:28:44.497Z,-3.40
2022-12-11T00:31:16.601Z,-3.40
2022-12-11T00:33:45.309Z,-3.40
2022-12-11T00:36:14.900Z,-3.60
2022-12-11T00:38:43.085Z,-1.70
2022-12-11T00:41:15.291Z,-3.50
2022-12-11T00:43:43.312Z,-2.40
2022-12-11T00:46:11.093Z,-3.80
2022-12-11T00:48:39.298Z,-3.50
2022-12-11T00:53:34.694Z,-3.60
2022-12-11T00:56:02.166Z,-3.60
2022-12-11T00:58:29.795Z,-3.90
2022-12-11T01:01:06.154Z,-3.70
2022-12-11T01:03:33.769Z,-3.60
2022-12-11T01:06:01.336Z,-3.70
2022-12-11T01:08:31.683Z,-3.70
2022-12-11T01:11:06.307Z,-3.60
2022-12-11T01:13:34.315Z,-3.70
2022-12-11T01:16:05.940Z,-3.80
2022-12-11T01:18:33.507Z,-1.30
2022-12-11T01:21:06.302Z,-3.70
2022-12-11T01:23:33.841Z,-3.80
2022-12-11T01:26:12.619Z,-4.00
2022-12-11T01:28:41.026Z,-3.80
2022-12-11T01:31:14.637Z,-3.80
2022-12-11T01:33:42.292Z,-4.00
2022-12-11T01:36:16.991Z,-3.90
2022-12-11T01:38:45.994Z,-3.90
2022-12-11T01:41:13.820Z,-3.90
2022-12-11T01:44:07.785Z,-3.80
2022-12-11T01:46:36.822Z,-3.90
2022-12-11T01:49:09.102Z,-3.90
2022-12-11T01:51:47.788Z,-1.80
2022-12-11T01:54:19.215Z,-3.90
2022-12-11T01:56:48.805Z,-3.90
2022-12-11T01:59:20.811Z,-4.00
2022-12-11T02:02:08.783Z,-4.00
2022-12-11T02:04:39.594Z,-4.00
2022-12-11T02:07:07.144Z,-4.00
2022-12-11T02:09:36.642Z,-4.10
2022-12-11T02:12:16.205Z,-4.20
2022-12-11T02:15:14.563Z,-3.90
2022-12-11T02:17:48.753Z,-5.10
2022-12-11T02:20:23.362Z,-2.80
2022-12-11T02:23:11.907Z,-1.70
2022-12-11T02:26:06.913Z,-4.00
2022-12-11T02:28:53.801Z,-4.00
2022-12-11T02:31:27.726Z,-2.00
2022-12-11T02:34:26.462Z,-4.00
2022-12-11T02:37:00.599Z,-4.00
2022-12-11T02:39:29.808Z,-4.20
2022-12-11T02:41:58.274Z,-4.10
2022-12-11T02:44:29.516Z,-4.00
2022-12-11T02:46:59.481Z,-4.20
2022-12-11T02:49:29.037Z,-4.00
2022-12-11T02:51:58.554Z,-4.20
2022-12-11T02:54:31.756Z,-1.50
2022-12-11T02:57:05.885Z,-4.00
2022-12-11T02:59:36.970Z,-4.10
2022-12-11T03:02:05.402Z,-4.00
2022-12-11T03:04:35.136Z,-4.00
2022-12-11T03:07:14.231Z,-4.10
2022-12-11T03:09:44.413Z,-4.10
2022-12-11T03:12:17.296Z,-2.50
2022-12-11T03:14:45.416Z,-4.10
2022-12-11T03:17:18.171Z,-4.10
2022-12-11T03:19:48.832Z,-4.10
2022-12-11T03:22:22.104Z,-4.10
2022-12-11T03:24:55.120Z,-4.10
2022-12-11T03:27:37.840Z,-4.10
2022-12-11T03:30:19.326Z,-4.10
2022-12-11T03:32:55.802Z,-4.10
2022-12-11T03:35:29.193Z,-4.10
2022-12-11T03:38:01.349Z,-4.20
2022-12-11T03:40:33.279Z,-2.10
2022-12-11T03:43:01.094Z,-4.30
2022-12-11T03:45:30.416Z,-4.50
2022-12-11T03:47:59.884Z,-1.50
2022-12-11T03:50:30.722Z,-4.30
2022-12-11T03:53:00.568Z,-4.20
2022-12-11T03:55:29.421Z,-4.30
2022-12-11T03:57:57.310Z,-4.30
2022-12-11T04:00:25.076Z,-4.30
2022-12-11T04:03:13.628Z,-4.30
2022-12-11T04:05:47.054Z,-4.70
2022-12-11T04:08:15.596Z,-4.40
2022-12-11T04:10:43.781Z,-4.40
2022-12-11T04:13:11.677Z,-4.40
2022-12-11T04:15:40.142Z,-4.30
2022-12-11T04:18:26.870Z,-4.30
2022-12-11T04:21:14.068Z,-3.30
2022-12-11T04:23:59.959Z,-4.30
2022-12-11T04:26:27.766Z,-4.20
2022-12-11T04:28:55.303Z,-4.20
2022-12-11T04:31:23.390Z,-3.00
2022-12-11T04:33:51.185Z,-4.60
2022-12-11T04:36:18.796Z,-4.30
2022-12-11T04:38:46.357Z,-4.50
2022-12-11T04:41:16.064Z,-4.60
2022-12-11T04:43:47.008Z,-4.50
2022-12-11T04:46:20.760Z,-4.40
2022-12-11T04:48:53.834Z,-4.30
2022-12-11T04:51:24.506Z,-4.30
2022-12-11T04:53:52.179Z,-4.30
2022-12-11T04:56:20.294Z,-4.30
2022-12-11T04:58:48.366Z,-4.30
2022-12-11T05:01:22.073Z,-4.30
2022-12-11T05:03:50.188Z,-2.00
2022-12-11T05:06:17.852Z,-3.90
2022-12-11T05:08:45.823Z,-4.40
2022-12-11T05:11:15.286Z,-4.30
2022-12-11T05:13:43.720Z,-3.00
2022-12-11T05:16:14.305Z,-4.30
2022-12-11T05:18:42.104Z,-4.30
2022-12-11T05:21:12.543Z,-4.60
2022-12-11T05:23:40.943Z,-4.30
2022-12-11T05:26:14.055Z,-4.30
2022-12-11T05:28:41.936Z,-4.40
2022-12-11T05:31:15.711Z,-2.80
2022-12-11T05:33:44.585Z,-4.40
2022-12-11T05:36:23.872Z,-4.40
2022-12-11T05:38:52.991Z,-4.40
2022-12-11T05:41:22.963Z,-4.40
2022-12-11T05:43:51.225Z,-4.40
2022-12-11T05:46:21.414Z,-4.50
2022-12-11T05:48:51.892Z,-3.50
2022-12-11T05:51:19.959Z,-4.50
2022-12-11T05:53:48.637Z,-3.60
2022-12-11T05:56:24.291Z,-4.50
2022-12-11T05:58:52.576Z,-4.70
2022-12-11T06:02:31.300Z,-3.10
2022-12-11T06:05:04.335Z,-3.00
2022-12-11T06:07:43.445Z,-4.30
2022-12-11T06:10:27.862Z,-4.50
2022-12-11T06:13:05.264Z,-2.50
2022-12-11T06:15:33.307Z,-2.90
2022-12-11T06:18:03.263Z,-3.30
2022-12-11T06:20:52.155Z,-4.40
2022-12-11T06:23:25.747Z,-2.00
2022-12-11T06:25:53.549Z,-4.90
2022-12-11T06:28:21.083Z,-2.80
2022-12-11T06:30:48.575Z,-4.40
2022-12-11T06:33:16.156Z,-4.30
2022-12-11T06:38:11.676Z,-4.10
2022-12-11T06:40:39.189Z,-4.00
2022-12-11T06:43:06.994Z,-4.70
2022-12-11T06:45:38.144Z,-2.20
2022-12-11T06:48:05.994Z,-1.40
2022-12-11T06:50:33.659Z,-3.70
2022-12-11T06:53:01.214Z,-1.60
2022-12-11T06:55:28.919Z,-1.60
2022-12-11T06:57:56.543Z,-3.60
2022-12-11T07:00:24.301Z,-1.40
2022-12-11T07:02:51.961Z,-3.40
2022-12-11T07:05:19.971Z,-3.80
2022-12-11T07:07:47.528Z,-2.40
2022-12-11T07:10:14.972Z,-3.20
2022-12-11T07:12:42.703Z,-1.50
2022-12-11T07:15:10.924Z,-0.70
2022-12-11T07:17:38.727Z,-3.40
2022-12-11T07:20:06.885Z,-3.80
2022-12-11T07:22:34.580Z,-3.40
2022-12-11T07:25:02.148Z,-2.00
2022-12-11T07:27:30.780Z,-1.20
2022-12-11T07:29:58.362Z,-1.40
2022-12-11T07:32:26.150Z,-1.90
2022-12-11T07:34:53.854Z,-3.90
2022-12-11T07:37:21.396Z,-3.80
2022-12-11T07:39:49.138Z,-3.90
2022-12-11T07:42:17.077Z,-1.70
2022-12-11T07:44:44.624Z,-3.80
2022-12-11T07:47:12.216Z,-3.80
2022-12-11T07:49:39.886Z,-4.20
2022-12-11T07:52:07.450Z,-2.60
2022-12-11T07:54:36.134Z,-1.60
2022-12-11T07:57:03.811Z,-3.80
2022-12-11T07:59:31.477Z,-3.60
2022-12-11T08:02:01.298Z,-1.60
2022-12-11T08:04:28.989Z,-4.00
2022-12-11T08:06:57.970Z,-2.10
2022-12-11T08:09:25.510Z,-1.80
2022-12-11T08:11:53.135Z,-2.50
2022-12-11T08:14:21.163Z,-1.90
2022-12-11T08:16:53.211Z,-1.60
2022-12-11T08:19:20.847Z,-2.20
2022-12-11T08:21:48.627Z,-2.20
2022-12-11T08:24:20.810Z,-2.70
2022-12-11T08:26:50.005Z,-4.30
2022-12-11T08:29:20.624Z,-3.30
2022-12-11T08:31:48.275Z,-4.90
2022-12-11T08:34:16.893Z,-1.20
2022-12-11T08:36:47.177Z,-3.10
2022-12-11T08:39:14.995Z,-3.40
2022-12-11T08:41:45.137Z,-1.40
2022-12-11T08:44:16.695Z,-3.30
2022-12-11T08:46:48.555Z,-2.20
2022-12-11T08:49:16.204Z,-1.40
2022-12-11T08:51:43.798Z,-1.10
2022-12-11T08:54:11.910Z,-4.40
2022-12-11T08:56:41.499Z,-2.80
2022-12-11T08:59:09.141Z,-0.70
2022-12-11T09:01:39.968Z,-1.40
2022-12-11T09:04:07.743Z,-1.60
2022-12-11T09:06:36.955Z,-2.40
2022-12-11T09:09:05.303Z,-0.50
2022-12-11T09:11:35.659Z,-2.90
2022-12-11T09:14:07.618Z,-2.90
2022-12-11T09:16:39.691Z,-1.50
2022-12-11T09:19:10.722Z,-2.80
2022-12-11T09:21:38.651Z,-2.80
2022-12-11T09:24:06.631Z,-2.00
2022-12-11T09:26:34.097Z,-2.70
2022-12-11T09:29:04.280Z,-2.60
2022-12-11T09:31:36.983Z,-0.30
2022-12-11T09:34:11.818Z,-0.60
2022-12-11T09:36:40.592Z,-0.40
2022-12-11T09:39:12.685Z,-2.30
2022-12-11T09:41:55.291Z,-0.90
2022-12-11T09:44:41.484Z,-2.30
2022-12-11T09:47:35.265Z,-2.70
2022-12-11T09:50:25.271Z,-2.30
2022-12-11T09:52:52.896Z,-2.20
2022-12-11T09:55:46.757Z,-2.20
2022-12-11T09:58:26.472Z,-0.40
2022-12-11T10:01:25.166Z,-0.40
2022-12-11T10:03:58.598Z,-2.30
2022-12-11T10:06:38.461Z,-1.80
2022-12-11T10:09:34.179Z,0.00
2022-12-11T10:12:17.262Z,-1.80
2022-12-11T10:14:57.648Z,-1.70
2022-12-11T10:17:41.747Z,0.10
2022-12-11T10:20:22.204Z,-2.40
2022-12-11T10:22:56.144Z,0.50
2022-12-11T10:25:43.213Z,-0.30
2022-12-11T10:28:16.050Z,-1.60
2022-12-11T10:31:13.541Z,1.20
2022-12-11T10:33:53.387Z,-1.60
2022-12-11T10:36:27.540Z,-1.50
2022-12-11T10:38:55.403Z,-1.80
2022-12-11T10:41:31.882Z,-0.10
2022-12-11T10:44:01.853Z,-0.10
2022-12-11T10:46:38.689Z,-3.10
2022-12-11T10:49:23.114Z,-0.80
2022-12-11T10:51:53.315Z,0.10
2022-12-11T10:54:38.303Z,0.50
2022-12-11T10:57:11.604Z,-2.20
2022-12-11T10:59:50.379Z,0.70
2022-12-11T11:02:33.346Z,0.50
2022-12-11T11:05:12.413Z,-1.30
2022-12-11T11:07:44.163Z,-1.30
2022-12-11T11:10:20.677Z,0.50
2022-12-11T11:12:52.692Z,-1.30
2022-12-11T11:15:30.470Z,0.00
2022-12-11T11:18:07.416Z,-0.80
2022-12-11T11:20:35.757Z,0.40
2022-12-11T11:23:11.357Z,0.00
2022-12-11T11:25:52.779Z,1.00
2022-12-11T11:28:44.165Z,-3.10
2022-12-11T11:31:14.602Z,0.40
2022-12-11T11:34:03.183Z,0.10
2022-12-11T11:36:38.667Z,-0.90
2022-12-11T11:39:45.120Z,0.80
2022-12-11T11:42:23.338Z,-0.70
2022-12-11T11:45:31.515Z,0.00
2022-12-11T11:48:18.535Z,-0.90
2022-12-11T11:50:50.453Z,1.40
2022-12-11T11:53:31.818Z,-0.90
2022-12-11T11:56:17.998Z,-1.30
2022-12-11T11:58:49.759Z,-0.80
2022-12-11T12:01:37.719Z,0.70
2022-12-11T12:04:05.594Z,1.00
2022-12-11T12:10:55.953Z,-0.70
2022-12-11T12:13:50.826Z,-0.40
2022-12-11T12:16:54.096Z,-2.70
2022-12-11T12:19:39.188Z,2.50
2022-12-11T12:22:52.880Z,-0.40
2022-12-11T12:25:52.395Z,-0.40
2022-12-11T12:28:27.215Z,-0.10
2022-12-11T12:31:01.026Z,-0.30
2022-12-11T12:33:31.992Z,2.20
2022-12-11T12:37:12.411Z,0.80
2022-12-11T12:40:09.533Z,-0.70
2022-12-11T12:43:05.557Z,-2.00
2022-12-11T12:46:10.343Z,1.00
2022-12-11T12:48:37.975Z,-0.20
2022-12-11T12:51:06.775Z,-0.30
2022-12-11T12:53:36.888Z,-0.20
2022-12-11T12:56:06.214Z,-0.30
2022-12-11T12:58:43.610Z,-0.10
2022-12-11T13:01:37.388Z,-0.20
2022-12-11T13:04:55.140Z,0.70
2022-12-11T13:07:30.960Z,-0.10
2022-12-11T13:10:27.407Z,2.50
2022-12-11T13:12:58.960Z,1.20
2022-12-11T13:15:34.536Z,0.10
2022-12-11T13:18:10.076Z,-0.20
2022-12-11T13:20:48.263Z,-0.20
2022-12-11T13:23:29.793Z,1.80
2022-12-11T13:26:05.630Z,0.10
2022-12-11T13:28:48.237Z,1.50
2022-12-11T13:31:17.910Z,1.40
2022-12-11T13:33:57.309Z,1.40
2022-12-11T13:36:35.228Z,2.50
2022-12-11T13:39:22.791Z,2.10
2022-12-11T13:42:32.515Z,0.00
2022-12-11T13:45:01.702Z,-0.10
2022-12-11T13:47:31.178Z,1.70
2022-12-11T13:50:23.950Z,2.00
2022-12-11T13:53:00.696Z,-1.10
2022-12-11T13:55:31.084Z,-0.40
2022-12-11T13:57:59.145Z,-0.10
2022-12-11T14:00:32.254Z,-0.50
2022-12-11T14:03:09.830Z,-0.10
2022-12-11T14:05:37.563Z,2.30
2022-12-11T14:08:11.690Z,1.90
2022-12-11T14:10:49.200Z,1.50
2022-12-11T14:13:25.392Z,2.30
2022-12-11T14:15:54.505Z,2.10
2022-12-11T14:18:24.809Z,1.90
2022-12-11T14:20:57.291Z,1.70
2022-12-11T14:23:28.997Z,1.30
2022-12-11T14:25:58.732Z,2.50
2022-12-11T14:28:28.127Z,1.30
2022-12-11T14:30:59.600Z,-0.60
2022-12-11T14:33:38.430Z,1.60
2022-12-11T14:36:09.807Z,-0.50
2022-12-11T14:39:16.541Z,-0.30
2022-12-11T14:42:08.170Z,-2.00
2022-12-11T14:44:50.598Z,0.20
2022-12-11T14:47:31.135Z,0.00
2022-12-11T14:50:05.455Z,0.50
2022-12-11T14:52:38.219Z,-0.20
2022-12-11T14:55:20.001Z,2.80
2022-12-11T14:57:58.362Z,0.20
2022-12-11T15:00:40.964Z,1.70
2022-12-11T15:03:17.920Z,-0.10
2022-12-11T15:06:26.018Z,1.60
2022-12-11T15:08:56.128Z,-0.10
2022-12-11T15:11:36.522Z,2.10
2022-12-11T15:14:09.977Z,0.80
2022-12-11T15:16:40.795Z,-0.90
2022-12-11T15:19:19.511Z,1.80
2022-12-11T15:21:47.719Z,2.60
2022-12-11T15:24:50.604Z,1.70
2022-12-11T15:27:30.421Z,0.70
2022-12-11T15:29:58.635Z,1.70
2022-12-11T15:32:26.340Z,1.50
2022-12-11T15:34:59.638Z,2.20
2022-12-11T15:37:52.151Z,2.30
2022-12-11T15:40:31.342Z,-0.50
2022-12-11T15:43:02.250Z,1.40
2022-12-11T15:45:31.138Z,2.50
2022-12-11T15:48:02.991Z,1.90
2022-12-11T15:50:33.402Z,1.30
2022-12-11T15:53:01.050Z,1.20
2022-12-11T15:55:45.532Z,2.10
2022-12-11T15:58:21.095Z,2.00
2022-12-11T16:00:48.908Z,1.40
2022-12-11T16:03:28.774Z,0.70
2022-12-11T16:05:59.631Z,2.20
2022-12-11T16:08:27.494Z,1.60
2022-12-11T16:10:58.322Z,-2.10
2022-12-11T16:13:36.915Z,1.80
2022-12-11T16:16:07.028Z,2.10
2022-12-11T16:18:34.672Z,0.00
2022-12-11T16:21:05.371Z,-0.60
2022-12-11T16:23:33.048Z,0.10
2022-12-11T16:26:07.078Z,2.80
2022-12-11T16:28:38.071Z,1.80
2022-12-11T16:31:15.076Z,2.30
2022-12-11T16:33:43.623Z,0.30
2022-12-11T16:36:21.618Z,0.20
2022-12-11T16:38:54.231Z,1.40
2022-12-11T16:41:23.152Z,1.70
2022-12-11T16:43:51.302Z,2.00
2022-12-11T16:46:23.448Z,0.40
2022-12-11T16:48:51.115Z,-0.40
2022-12-11T16:51:18.999Z,2.90
2022-12-11T16:53:49.582Z,2.70
2022-12-11T16:56:17.622Z,0.60
2022-12-11T16:58:45.128Z,2.10
2022-12-11T17:01:17.449Z,0.20
2022-12-11T17:03:45.330Z,1.80
2022-12-11T17:06:19.416Z,1.50
2022-12-11T17:08:48.839Z,-0.80
2022-12-11T17:11:22.817Z,2.00
2022-12-11T17:14:02.661Z,-1.10
2022-12-11T17:16:41.525Z,1.90
2022-12-11T17:19:10.277Z,2.30
2022-12-11T17:21:38.029Z,1.80
2022-12-11T17:24:06.416Z,2.70
2022-12-11T17:26:54.953Z,0.40
2022-12-11T17:29:23.367Z,1.20
2022-12-11T17:31:51.706Z,1.60
2022-12-11T17:34:19.386Z,1.80
2022-12-11T17:36:47.380Z,3.30
2022-12-11T17:39:14.847Z,0.30
2022-12-11T17:41:42.374Z,0.30
2022-12-11T17:44:10.124Z,1.70
2022-12-11T17:46:37.716Z,0.30
2022-12-11T17:49:05.790Z,2.50
2022-12-11T17:51:33.423Z,0.30
2022-12-11T17:54:01.020Z,0.40
2022-12-11T17:56:28.557Z,0.40
2022-12-11T17:58:57.883Z,0.40
2022-12-11T18:01:28.490Z,1.00
2022-12-11T18:03:56.846Z,0.30
2022-12-11T18:06:24.466Z,0.40
2022-12-11T18:08:52.051Z,2.00
2022-12-11T18:11:21.806Z,2.30
2022-12-11T18:13:50.744Z,2.30
2022-12-11T18:16:20.986Z,1.80
2022-12-11T18:18:52.127Z,2.20
2022-12-11T18:21:28.253Z,2.50
2022-12-11T18:23:55.996Z,-1.30
2022-12-11T18:26:27.315Z,0.50
2022-12-11T18:28:55.046Z,2.00
2022-12-11T18:31:23.457Z,1.80
2022-12-11T18:33:51.339Z,0.20
2022-12-11T18:36:20.561Z,2.40
2022-12-11T18:38:49.008Z,2.60
2022-12-11T18:41:19.113Z,2.80
2022-12-11T18:43:48.735Z,0.50
2022-12-11T18:46:20.946Z,2.40
2022-12-11T18:48:51.424Z,2.80
2022-12-11T18:51:23.693Z,0.60
2022-12-11T18:53:54.264Z,0.60
2022-12-11T18:56:22.720Z,3.30
2022-12-11T18:58:59.965Z,3.10
2022-12-11T19:01:29.963Z,0.50
2022-12-11T19:04:05.575Z,0.60
2022-12-11T19:06:36.784Z,2.40
2022-12-11T19:09:07.248Z,0.70
2022-12-11T19:11:38.566Z,0.70
2022-12-11T19:14:07.165Z,2.20
2022-12-11T19:16:37.631Z,3.10
2022-12-11T19:19:11.870Z,2.30
2022-12-11T19:21:39.938Z,2.60
2022-12-11T19:24:08.267Z,0.70
2022-12-11T19:26:36.280Z,0.70
2022-12-11T19:29:04.130Z,0.60
2022-12-11T19:31:32.393Z,0.70
2022-12-11T19:34:01.675Z,0.50
2022-12-11T19:36:31.632Z,0.70
2022-12-11T19:39:01.735Z,0.70
2022-12-11T19:41:32.069Z,0.70
2022-12-11T19:44:00.084Z,0.70
2022-12-11T19:46:28.156Z,0.70
2022-12-11T19:48:57.070Z,0.70
2022-12-11T19:51:38.346Z,0.50
2022-12-11T19:54:07.734Z,2.00
2022-12-11T19:56:35.543Z,1.80
2022-12-11T19:59:06.295Z,0.70
2022-12-11T20:01:36.087Z,3.10
2022-12-11T20:04:11.669Z,3.00
2022-12-11T20:06:41.671Z,2.30
2022-12-11T20:09:11.992Z,0.60
2022-12-11T20:11:41.877Z,2.20
2022-12-11T20:14:15.323Z,2.90
2022-12-11T20:19:30.346Z,0.60
2022-12-11T20:22:00.709Z,0.60
2022-12-11T20:24:29.230Z,0.70
2022-12-11T20:26:57.245Z,0.60
2022-12-11T20:29:25.901Z,0.60
2022-12-11T20:31:53.565Z,0.60
2022-12-11T20:34:21.137Z,0.60
2022-12-11T20:36:48.954Z,0.60
2022-12-11T20:39:16.455Z,0.60
2022-12-11T20:41:44.030Z,0.50
2022-12-11T20:44:11.560Z,0.60
2022-12-11T20:46:39.152Z,0.60
2022-12-11T20:49:12.692Z,0.60
2022-12-11T20:51:40.586Z,0.60
2022-12-11T20:54:08.411Z,0.50
2022-12-11T20:56:36.181Z,0.50
2022-12-11T20:59:04.125Z,0.50
2022-12-11T21:01:33.034Z,0.50
2022-12-11T21:04:01.350Z,0.50
2022-12-11T21:06:34.558Z,0.40
2022-12-11T21:09:06.465Z,0.40
2022-12-11T21:11:34.421Z,0.40
2022-12-11T21:14:02.420Z,0.40
2022-12-11T21:16:30.200Z,0.40
2022-12-11T21:18:58.854Z,0.80
2022-12-11T21:21:26.756Z,1.50
2022-12-11T21:23:54.665Z,0.30
2022-12-11T21:26:22.162Z,2.50
2022-12-11T21:28:49.605Z,0.30
2022-12-11T21:31:19.122Z,2.40
2022-12-11T21:33:46.843Z,1.10
2022-12-11T21:36:20.412Z,2.20
2022-12-11T21:38:48.750Z,0.20
2022-12-11T21:41:19.332Z,0.10
2022-12-11T21:46:36.506Z,0.20
2022-12-11T21:49:04.249Z,0.20
2022-12-11T21:51:37.179Z,0.20
2022-12-11T21:54:10.321Z,0.50
2022-12-11T21:56:37.841Z,2.40
2022-12-11T21:59:06.245Z,0.20
2022-12-11T22:01:40.829Z,0.20
2022-12-11T22:04:09.759Z,0.20
2022-12-11T22:06:38.122Z,1.40
2022-12-11T22:09:06.350Z,0.20
2022-12-11T22:11:34.876Z,0.20
2022-12-11T22:14:03.520Z,0.20
2022-12-11T22:16:31.348Z,2.30
2022-12-11T22:19:01.491Z,0.20
2022-12-11T22:21:29.195Z,2.20
2022-12-11T22:23:56.930Z,0.20
2022-12-11T22:26:26.904Z,0.20
2022-12-11T22:28:55.328Z,0.20
2022-12-11T22:31:24.493Z,2.40
2022-12-11T22:33:53.918Z,0.20
2022-12-11T22:36:23.500Z,0.20
2022-12-11T22:38:51.342Z,2.10
2022-12-11T22:41:26.727Z,0.20
2022-12-11T22:43:55.329Z,0.20
2022-12-11T22:46:25.395Z,0.50
2022-12-11T22:48:53.585Z,0.20
2022-12-11T22:51:21.679Z,0.20
2022-12-11T22:53:49.428Z,0.30
2022-12-11T22:56:17.246Z,0.20
2022-12-11T22:58:44.729Z,1.30
2022-12-11T23:01:15.979Z,0.20
2022-12-11T23:03:43.665Z,0.30
2022-12-11T23:06:13.964Z,1.30
2022-12-11T23:08:42.746Z,0.30
2022-12-11T23:11:18.325Z,0.30
2022-12-11T23:13:45.811Z,0.30
2022-12-11T23:16:15.031Z,0.30
2022-12-11T23:18:42.664Z,0.30
2022-12-11T23:21:10.983Z,0.30
2022-12-11T23:23:39.307Z,0.30
2022-12-11T23:26:10.270Z,0.30
2022-12-11T23:28:38.255Z,0.40
2022-12-11T23:31:08.693Z,0.30
2022-12-11T23:33:36.518Z,3.00
2022-12-11T23:36:05.125Z,0.40
2022-12-11T23:38:32.884Z,0.40
2022-12-11T23:41:00.994Z,0.30
2022-12-11T23:43:28.552Z,0.40
2022-12-11T23:45:57.643Z,0.40
2022-12-11T23:48:25.255Z,0.40
2022-12-11T23:50:57.535Z,0.40
2022-12-11T23:53:25.020Z,0.40
2022-12-11T23:55:52.473Z,1.50
2022-12-11T23:58:20.009Z,0.40
